Atlantic, Pennsylvania
Current Conditions -  °F | °C
As of 5:53 PM on Monday 22 Dec 2014 (Local Time) from KGKJ Reporting Station
Few Clouds Few Clouds  
Wind Chill: 30°   Ceiling: Unl
Heat Index: 34°   Visibility: 7mi
Dew Point: 26°   Wind: 5mph
Humidity: 73%   Direction: NA
Pressure: 30"   Gusts: NA
Location:  41.5°N, 80.33°W
Report Text: KGKJ 222253Z AUTO VRB04KT 7SM FEW047 01/M03 A3000 RMK AO2 SLP173 T00111033 TSNO
Loading
Personal Weather Stations






























Interactive Weather Map New forecast layout! Learn more

10-Day Weather Forecast

Advertisements
Track Severe Weather on mobile